Time;durP1;ratioP1;P1;durP2;ratioP2;P2;SDS_P1;SDS_P2;PMS_P1;PMS_P2;Temp;Humidity;BMP_temperature;BMP_pressure;BME280_temperature;BME280_humidity;BME280_pressure;Samples;Min_cycle;Max_cycle;Signal;HPM_P1;HPM_P2
2022/12/13 00:01:22;;;;;;;;;;;-10.60;99.90;;;;;;5056666;28;19909;-63
2022/12/13 00:03:47;;;;;;;;;;;-10.60;99.90;;;;;;5056862;28;19909;-63
2022/12/13 00:06:13;;;;;;;;;;;-10.60;99.90;;;;;;5055433;28;19917;-62
2022/12/13 00:08:40;;;;;;;;;;;-10.60;99.90;;;;;;5055662;28;19912;-62
2022/12/13 00:11:07;;;;;;;;;;;-10.60;99.90;;;;;;5056533;28;20269;-63
2022/12/13 00:13:32;;;;;;;;;;;-10.60;99.90;;;;;;5056461;28;19956;-62
2022/12/13 00:15:59;;;;;;;;;;;-10.70;99.90;;;;;;5056635;28;20430;-61
2022/12/13 00:18:25;;;;;;;;;;;-10.80;99.90;;;;;;5056279;28;19977;-62
2022/12/13 00:20:51;;;;;;;;;;;-10.80;99.90;;;;;;5056596;28;20361;-63
2022/12/13 00:23:16;;;;;;;;;;;-10.80;99.90;;;;;;5056299;28;20315;-63
2022/12/13 00:25:42;;;;;;;;;;;-10.80;99.90;;;;;;5054976;28;20381;-63
2022/12/13 00:28:07;;;;;;;;;;;-10.70;99.90;;;;;;5056167;28;20007;-62
2022/12/13 00:30:33;;;;;;;;;;;-10.80;99.90;;;;;;5056076;28;19940;-63
2022/12/13 00:32:59;;;;;;;;;;;-10.70;99.90;;;;;;5056315;28;19912;-63
2022/12/13 00:35:24;;;;;;;;;;;-10.80;99.90;;;;;;5054948;28;19944;-63
2022/12/13 00:37:50;;;;;;;;;;;-10.80;99.90;;;;;;5055889;28;20430;-62
2022/12/13 00:40:15;;;;;;;;;;;-10.80;99.90;;;;;;5055922;28;20015;-63
2022/12/13 00:42:41;;;;;;;;;;;-10.80;99.90;;;;;;5055966;28;19919;-64
2022/12/13 00:45:08;;;;;;;;;;;-10.80;99.90;;;;;;5056052;28;19917;-63
2022/12/13 00:47:34;;;;;;;;;;;-10.80;99.90;;;;;;5054681;28;19913;-63
2022/12/13 00:49:59;;;;;;;;;;;-10.80;99.90;;;;;;5056079;28;19913;-61
2022/12/13 00:52:25;;;;;;;;;;;-10.80;99.90;;;;;;5055598;28;20031;-63
2022/12/13 00:54:50;;;;;;;;;;;-10.80;99.90;;;;;;5054421;28;19920;-62
2022/12/13 00:57:16;;;;;;;;;;;-10.90;99.90;;;;;;5055555;28;19924;-63
2022/12/13 00:59:41;;;;;;;;;;;-10.90;99.90;;;;;;5054589;28;20272;-63
2022/12/13 01:02:07;;;;;;;;;;;-10.90;99.90;;;;;;5055477;28;19917;-63
2022/12/13 01:04:33;;;;;;;;;;;-10.90;99.90;;;;;;5055414;28;19920;-63
2022/12/13 01:06:58;;;;;;;;;;;-10.90;99.90;;;;;;5055441;28;20269;-63
2022/12/13 01:09:26;;;;;;;;;;;-10.90;99.90;;;;;;5054172;28;20266;-63
2022/12/13 01:11:55;;;;;;;;;;;-11.00;99.90;;;;;;5055357;28;19908;-63
2022/12/13 01:14:20;;;;;;;;;;;-10.90;99.90;;;;;;5055223;28;20366;-62
2022/12/13 01:16:46;;;;;;;;;;;-10.90;99.90;;;;;;5054046;28;19913;-62
2022/12/13 01:19:12;;;;;;;;;;;-10.90;99.90;;;;;;5055464;28;20027;-63
2022/12/13 01:21:37;;;;;;;;;;;-11.00;99.90;;;;;;5054334;28;19913;-63
2022/12/13 01:24:03;;;;;;;;;;;-11.20;99.90;;;;;;5055274;28;19916;-63
2022/12/13 01:26:30;;;;;;;;;;;-11.30;99.90;;;;;;5055267;28;19908;-63
2022/12/13 01:28:55;;;;;;;;;;;-11.30;99.90;;;;;;5055276;28;19917;-63
2022/12/13 01:31:21;;;;;;;;;;;-11.30;99.90;;;;;;5054965;28;20012;-63
2022/12/13 01:33:47;;;;;;;;;;;-11.40;99.90;;;;;;5054834;28;19917;-62
2022/12/13 01:36:13;;;;;;;;;;;-11.30;99.90;;;;;;5054847;28;20381;-63
2022/12/13 01:38:39;;;;;;;;;;;-11.30;99.90;;;;;;5054785;28;19913;-63
2022/12/13 01:41:05;;;;;;;;;;;-11.30;99.90;;;;;;5054783;28;20388;-62
2022/12/13 01:43:49;;;;;;;;;;;-11.30;99.90;;;;;;5054722;28;19924;-63
2022/12/13 01:46:16;;;;;;;;;;;-11.20;99.90;;;;;;5054788;28;20269;-63
2022/12/13 01:48:47;;;;;;;;;;;-11.30;99.90;;;;;;5054685;28;20292;-62
2022/12/13 01:51:14;;;;;;;;;;;-11.20;99.90;;;;;;5054493;28;19966;-63
2022/12/13 01:53:41;;;;;;;;;;;-11.20;99.90;;;;;;5054777;28;19909;-62
2022/12/13 01:56:08;;;;;;;;;;;-11.20;99.90;;;;;;5054786;28;19909;-63
2022/12/13 01:58:35;;;;;;;;;;;-11.20;99.90;;;;;;5054459;28;19919;-62
2022/12/13 02:01:00;;;;;;;;;;;-11.20;99.90;;;;;;5054696;28;19908;-63
2022/12/13 02:03:26;;;;;;;;;;;-11.30;99.90;;;;;;5054361;28;19920;-63
2022/12/13 02:05:55;;;;;;;;;;;-11.30;99.90;;;;;;5054239;28;19960;-63
2022/12/13 02:08:21;;;;;;;;;;;-11.20;99.90;;;;;;5054267;28;19934;-62
2022/12/13 02:10:47;;;;;;;;;;;-11.20;99.90;;;;;;5054226;28;20003;-63
2022/12/13 02:13:13;;;;;;;;;;;-11.30;99.90;;;;;;5054156;28;19986;-63
2022/12/13 02:15:44;;;;;;;;;;;-11.20;99.90;;;;;;5055072;28;19909;-62
2022/12/13 02:18:21;;;;;;;;;;;-11.20;99.90;;;;;;5054088;28;19913;-63
2022/12/13 02:20:56;;;;;;;;;;;-11.20;99.90;;;;;;5054154;28;19916;-63
2022/12/13 02:23:32;;;;;;;;;;;-11.30;99.90;;;;;;5054108;28;19916;-63
2022/12/13 02:26:00;;;;;;;;;;;-11.30;99.90;;;;;;5053952;28;19920;-63
2022/12/13 02:28:40;;;;;;;;;;;-11.30;99.90;;;;;;5053971;28;19909;-62
2022/12/13 02:31:15;;;;;;;;;;;-11.40;99.90;;;;;;5054234;28;19909;-63
2022/12/13 02:34:03;;;;;;;;;;;-11.50;99.90;;;;;;5054143;28;19915;-63
2022/12/13 02:36:29;;;;;;;;;;;-11.50;99.90;;;;;;5054960;28;19916;-66
2022/12/13 02:38:58;;;;;;;;;;;-11.60;99.90;;;;;;5054073;28;20280;-66
2022/12/13 02:41:24;;;;;;;;;;;-11.60;99.90;;;;;;5053792;28;19916;-66
2022/12/13 02:44:03;;;;;;;;;;;-11.60;99.90;;;;;;5053730;28;20292;-66
2022/12/13 02:46:31;;;;;;;;;;;-11.60;99.90;;;;;;5054095;28;19905;-66
2022/12/13 02:48:58;;;;;;;;;;;-11.60;99.90;;;;;;5054056;28;19919;-66
2022/12/13 02:51:24;;;;;;;;;;;-11.60;99.90;;;;;;5054088;28;19920;-66
2022/12/13 02:53:50;;;;;;;;;;;-11.60;99.90;;;;;;5054166;28;19913;-66
2022/12/13 02:56:15;;;;;;;;;;;-11.60;99.90;;;;;;5053681;28;20284;-66
2022/12/13 02:58:47;;;;;;;;;;;-11.60;99.90;;;;;;5055812;28;20443;-66
2022/12/13 03:01:21;;;;;;;;;;;-11.60;99.90;;;;;;5057796;28;19931;-66
2022/12/13 03:03:58;;;;;;;;;;;-11.60;99.90;;;;;;5057992;28;19920;-66
2022/12/13 03:06:45;;;;;;;;;;;-11.50;99.90;;;;;;5057732;28;19905;-66
2022/12/13 03:09:19;;;;;;;;;;;-11.50;99.90;;;;;;5058259;28;19909;-66
2022/12/13 03:14:48;;;;;;;;;;;-11.50;99.90;;;;;;5057839;28;20387;-66
2022/12/13 03:17:15;;;;;;;;;;;-11.40;99.90;;;;;;5057568;28;19931;-66
2022/12/13 03:19:41;;;;;;;;;;;-11.50;99.90;;;;;;5057372;28;19919;-66
2022/12/13 03:22:06;;;;;;;;;;;-11.60;99.90;;;;;;5057706;28;20003;-66
2022/12/13 03:24:32;;;;;;;;;;;-11.70;99.90;;;;;;5057376;28;19936;-66
2022/12/13 03:26:57;;;;;;;;;;;-11.80;99.90;;;;;;5057319;28;19913;-66
2022/12/13 03:29:23;;;;;;;;;;;-11.90;99.90;;;;;;5057296;28;20004;-66
2022/12/13 03:31:49;;;;;;;;;;;-11.90;99.90;;;;;;5057243;28;19944;-66
2022/12/13 03:34:14;;;;;;;;;;;-12.00;99.90;;;;;;5057126;28;19913;-66
2022/12/13 03:36:40;;;;;;;;;;;-12.00;99.90;;;;;;5057156;28;20007;-66
2022/12/13 03:39:05;;;;;;;;;;;-12.00;99.90;;;;;;5057092;28;19913;-66
2022/12/13 03:41:31;;;;;;;;;;;-12.10;99.90;;;;;;5057052;28;19974;-66
2022/12/13 03:44:03;;;;;;;;;;;-12.10;99.90;;;;;;5055714;28;20364;-66
2022/12/13 03:46:28;;;;;;;;;;;-12.10;99.90;;;;;;5057309;28;19948;-66
2022/12/13 03:48:54;;;;;;;;;;;-12.20;99.90;;;;;;5055674;28;19913;-66
2022/12/13 03:51:20;;;;;;;;;;;-12.20;99.90;;;;;;5056949;28;19917;-66
2022/12/13 03:53:45;;;;;;;;;;;-12.20;99.90;;;;;;5056773;28;19908;-65
2022/12/13 03:56:11;;;;;;;;;;;-12.10;99.90;;;;;;5056789;28;19923;-66
2022/12/13 03:58:36;;;;;;;;;;;-12.10;99.90;;;;;;5056661;28;19916;-66
2022/12/13 04:01:07;;;;;;;;;;;-12.10;99.90;;;;;;5056691;28;20375;-65
2022/12/13 04:03:33;;;;;;;;;;;-12.00;99.90;;;;;;5056713;28;20354;-65
2022/12/13 04:05:58;;;;;;;;;;;-12.10;99.90;;;;;;5056635;28;19908;-66
2022/12/13 04:08:24;;;;;;;;;;;-12.10;99.90;;;;;;5056527;28;19935;-66
2022/12/13 04:10:49;;;;;;;;;;;-12.20;99.90;;;;;;5056517;28;20296;-66
2022/12/13 04:13:33;;;;;;;;;;;-12.20;99.90;;;;;;5056779;28;20274;-66
2022/12/13 04:15:59;;;;;;;;;;;-12.20;99.90;;;;;;5056451;28;19917;-66
2022/12/13 04:18:25;;;;;;;;;;;-12.20;99.90;;;;;;5056653;28;19917;-66
2022/12/13 04:20:50;;;;;;;;;;;-12.30;99.90;;;;;;5056868;28;19920;-66
2022/12/13 04:23:16;;;;;;;;;;;-12.50;99.90;;;;;;5056544;28;19935;-66
2022/12/13 04:25:42;;;;;;;;;;;-12.60;99.90;;;;;;5056202;28;19920;-66
2022/12/13 04:28:08;;;;;;;;;;;-12.50;99.90;;;;;;5056727;28;20025;-66
2022/12/13 04:30:34;;;;;;;;;;;-12.50;99.90;;;;;;5056135;28;20373;-66
2022/12/13 04:33:00;;;;;;;;;;;-12.40;99.90;;;;;;5056355;28;20284;-66
2022/12/13 04:35:25;;;;;;;;;;;-12.30;99.90;;;;;;5055965;28;19913;-65
2022/12/13 04:37:51;;;;;;;;;;;-12.30;99.90;;;;;;5055949;28;19920;-66
2022/12/13 04:40:17;;;;;;;;;;;-12.30;99.90;;;;;;5054757;28;19917;-65
2022/12/13 04:42:42;;;;;;;;;;;-12.30;99.90;;;;;;5056484;28;19978;-66
2022/12/13 04:45:08;;;;;;;;;;;-12.30;99.90;;;;;;5055788;28;20331;-66
2022/12/13 04:47:34;;;;;;;;;;;-12.30;99.90;;;;;;5054948;28;19947;-66
2022/12/13 04:49:59;;;;;;;;;;;-12.20;99.90;;;;;;5056386;28;20373;-66
2022/12/13 04:52:25;;;;;;;;;;;-12.20;99.90;;;;;;5055762;28;19969;-66
2022/12/13 04:54:51;;;;;;;;;;;-12.20;99.90;;;;;;5055638;28;20003;-65
2022/12/13 04:57:16;;;;;;;;;;;-12.20;99.90;;;;;;5055970;28;20288;-66
2022/12/13 04:59:45;;;;;;;;;;;-12.30;99.90;;;;;;5055518;28;19924;-66
2022/12/13 05:02:11;;;;;;;;;;;-12.30;99.90;;;;;;5055770;28;20331;-65
2022/12/13 05:04:37;;;;;;;;;;;-12.40;99.90;;;;;;5055419;28;20003;-65
2022/12/13 05:07:02;;;;;;;;;;;-12.50;99.90;;;;;;5055709;28;19913;-66
2022/12/13 05:09:28;;;;;;;;;;;-12.60;99.90;;;;;;5055704;28;20380;-66
2022/12/13 05:11:54;;;;;;;;;;;-12.60;99.90;;;;;;5055376;28;19959;-66
2022/12/13 05:14:19;;;;;;;;;;;-12.60;99.90;;;;;;5055256;28;19909;-66
2022/12/13 05:16:45;;;;;;;;;;;-12.60;99.90;;;;;;5054398;28;19919;-66
2022/12/13 05:19:10;;;;;;;;;;;-12.50;99.90;;;;;;5055405;28;19917;-66
2022/12/13 05:21:36;;;;;;;;;;;-12.50;99.90;;;;;;5054729;28;20016;-66
2022/12/13 05:24:02;;;;;;;;;;;-12.40;99.90;;;;;;5055345;28;19913;-66
2022/12/13 05:26:28;;;;;;;;;;;-12.50;99.90;;;;;;5055223;28;19959;-66
2022/12/13 05:28:57;;;;;;;;;;;-12.40;99.90;;;;;;5055170;28;19962;-66
2022/12/13 05:31:23;;;;;;;;;;;-12.40;99.90;;;;;;5055647;28;19916;-66
2022/12/13 05:33:49;;;;;;;;;;;-12.40;99.90;;;;;;5054878;28;20360;-65
2022/12/13 05:36:14;;;;;;;;;;;-12.50;99.90;;;;;;5054844;28;20091;-65
2022/12/13 05:38:40;;;;;;;;;;;-12.40;99.90;;;;;;5055358;28;20031;-65
2022/12/13 05:41:05;;;;;;;;;;;-12.50;99.90;;;;;;5054771;28;20414;-65
2022/12/13 05:43:31;;;;;;;;;;;-12.60;99.90;;;;;;5054767;28;19913;-65
2022/12/13 05:45:56;;;;;;;;;;;-12.60;99.90;;;;;;5055932;28;19952;-65
2022/12/13 05:48:22;;;;;;;;;;;-12.70;99.90;;;;;;5056295;28;19912;-65
2022/12/13 05:50:48;;;;;;;;;;;-12.70;99.90;;;;;;5055132;28;19909;-67
2022/12/13 05:53:14;;;;;;;;;;;-12.70;99.90;;;;;;5056442;28;20003;-65
2022/12/13 05:55:40;;;;;;;;;;;-12.70;99.90;;;;;;5055454;28;19999;-65
2022/12/13 05:58:05;;;;;;;;;;;-12.70;99.90;;;;;;5055764;28;20335;-65
2022/12/13 06:00:31;;;;;;;;;;;-12.70;99.90;;;;;;5055989;28;19963;-66
2022/12/13 06:02:57;;;;;;;;;;;-12.60;99.90;;;;;;5055799;28;19924;-66
2022/12/13 06:05:23;;;;;;;;;;;-12.60;99.90;;;;;;5054467;28;19919;-66
2022/12/13 06:07:48;;;;;;;;;;;-12.70;99.90;;;;;;5054215;28;20011;-66
2022/12/13 06:10:14;;;;;;;;;;;-12.70;99.90;;;;;;5055746;28;19920;-66
2022/12/13 06:12:39;;;;;;;;;;;-12.70;99.90;;;;;;5055421;28;20245;-66
2022/12/13 06:15:05;;;;;;;;;;;-12.80;99.90;;;;;;5055377;28;19916;-66
2022/12/13 06:17:31;;;;;;;;;;;-12.80;99.90;;;;;;5055218;28;20059;-66
2022/12/13 06:19:57;;;;;;;;;;;-12.80;99.90;;;;;;5055021;28;20062;-65
2022/12/13 06:22:22;;;;;;;;;;;-12.80;99.90;;;;;;5055272;28;20384;-65
2022/12/13 06:24:48;;;;;;;;;;;-12.80;99.90;;;;;;5055260;28;19909;-65
2022/12/13 06:27:13;;;;;;;;;;;-12.70;99.90;;;;;;5053805;28;19919;-66
2022/12/13 06:29:39;;;;;;;;;;;-12.80;99.90;;;;;;5054903;28;19951;-65
2022/12/13 06:32:04;;;;;;;;;;;-12.90;99.90;;;;;;5054771;28;19963;-65
2022/12/13 06:34:32;;;;;;;;;;;-12.90;99.90;;;;;;5055251;28;19935;-65
2022/12/13 06:36:57;;;;;;;;;;;-12.90;99.90;;;;;;5053669;28;19912;-65
2022/12/13 06:39:23;;;;;;;;;;;-12.80;99.90;;;;;;5054510;28;20332;-65
2022/12/13 06:41:49;;;;;;;;;;;-12.80;99.90;;;;;;5055102;28;19916;-66
2022/12/13 06:44:14;;;;;;;;;;;-12.80;99.90;;;;;;5054366;28;20016;-66
2022/12/13 06:46:40;;;;;;;;;;;-12.90;99.90;;;;;;5054614;28;19956;-66
2022/12/13 06:49:06;;;;;;;;;;;-13.00;99.90;;;;;;5054253;28;19920;-65
2022/12/13 06:51:32;;;;;;;;;;;-13.00;99.90;;;;;;5054565;28;19920;-65
2022/12/13 06:53:57;;;;;;;;;;;-13.10;99.90;;;;;;5054471;28;19935;-66
2022/12/13 06:56:23;;;;;;;;;;;-13.10;99.90;;;;;;5054244;28;19909;-66
2022/12/13 06:58:48;;;;;;;;;;;-13.20;99.90;;;;;;5054622;28;19917;-65
2022/12/13 07:01:16;;;;;;;;;;;-13.20;99.90;;;;;;5054943;28;20421;-66
2022/12/13 07:03:42;;;;;;;;;;;-13.20;99.90;;;;;;5054248;28;19951;-65
2022/12/13 07:06:10;;;;;;;;;;;-13.10;99.90;;;;;;5054390;28;19944;-65
2022/12/13 07:08:36;;;;;;;;;;;-13.10;99.90;;;;;;5054216;28;19909;-65
2022/12/13 07:11:02;;;;;;;;;;;-13.10;99.90;;;;;;5054425;28;20352;-66
2022/12/13 07:13:27;;;;;;;;;;;-13.10;99.90;;;;;;5054048;28;20376;-66
2022/12/13 07:15:53;;;;;;;;;;;-13.10;99.90;;;;;;5054043;28;19913;-65
2022/12/13 07:18:18;;;;;;;;;;;-13.20;99.90;;;;;;5054047;28;19960;-65
2022/12/13 07:20:44;;;;;;;;;;;-13.20;99.90;;;;;;5054330;28;19917;-65
2022/12/13 07:23:10;;;;;;;;;;;-13.10;99.90;;;;;;5054130;28;19909;-65
2022/12/13 07:25:36;;;;;;;;;;;-13.10;99.90;;;;;;5053644;28;19908;-65
2022/12/13 07:28:03;;;;;;;;;;;-13.00;99.90;;;;;;5054129;28;19959;-65
2022/12/13 07:30:29;;;;;;;;;;;-13.00;99.90;;;;;;5054282;28;20338;-65
2022/12/13 07:32:55;;;;;;;;;;;-13.00;99.90;;;;;;5054409;28;20284;-65
2022/12/13 07:35:21;;;;;;;;;;;-12.90;99.90;;;;;;5054473;28;19913;-65
2022/12/13 07:37:46;;;;;;;;;;;-12.80;99.90;;;;;;5054602;28;20031;-65
2022/12/13 07:40:12;;;;;;;;;;;-12.80;99.90;;;;;;5052918;28;19917;-66
2022/12/13 07:42:37;;;;;;;;;;;-12.70;99.90;;;;;;5054103;28;20335;-65
2022/12/13 07:45:03;;;;;;;;;;;-12.70;99.90;;;;;;5055404;28;19920;-65
2022/12/13 07:47:30;;;;;;;;;;;-12.60;99.90;;;;;;5056400;28;19913;-65
2022/12/13 07:49:56;;;;;;;;;;;-12.60;99.90;;;;;;5056392;28;19916;-65
2022/12/13 07:52:22;;;;;;;;;;;-12.60;99.90;;;;;;5057463;28;19916;-66
2022/12/13 07:54:47;;;;;;;;;;;-12.60;99.90;;;;;;5058031;28;19913;-65
2022/12/13 07:57:13;;;;;;;;;;;-12.50;99.90;;;;;;5057312;28;19913;-65
2022/12/13 07:59:38;;;;;;;;;;;-12.50;99.90;;;;;;5057515;28;19912;-65
2022/12/13 08:02:11;;;;;;;;;;;-12.50;99.90;;;;;;5057556;28;19913;-66
2022/12/13 08:04:37;;;;;;;;;;;-12.40;99.90;;;;;;5058426;28;19935;-66
2022/12/13 08:07:05;;;;;;;;;;;-12.40;99.90;;;;;;5057257;28;19909;-65
2022/12/13 08:09:30;;;;;;;;;;;-12.40;99.90;;;;;;5057105;28;20311;-65
2022/12/13 08:11:56;;;;;;;;;;;-12.50;99.90;;;;;;5056995;28;19958;-65
2022/12/13 08:14:21;;;;;;;;;;;-12.50;99.90;;;;;;5057427;28;20011;-66
2022/12/13 08:16:47;;;;;;;;;;;-12.60;99.90;;;;;;5057229;28;19967;-65
2022/12/13 08:19:12;;;;;;;;;;;-12.50;99.90;;;;;;5057123;28;19924;-65
2022/12/13 08:21:39;;;;;;;;;;;-12.50;99.90;;;;;;5056966;28;19913;-65
2022/12/13 08:24:05;;;;;;;;;;;-12.40;99.90;;;;;;5056844;28;19923;-65
2022/12/13 08:26:30;;;;;;;;;;;-12.40;99.90;;;;;;5056389;28;19917;-65
2022/12/13 08:28:56;;;;;;;;;;;-12.30;99.90;;;;;;5057029;28;19913;-65
2022/12/13 08:31:21;;;;;;;;;;;-12.30;99.90;;;;;;5057005;28;19917;-65
2022/12/13 08:33:48;;;;;;;;;;;-12.40;99.90;;;;;;5055435;28;19923;-65
2022/12/13 08:36:15;;;;;;;;;;;-12.40;99.90;;;;;;5057084;28;19992;-60
2022/12/13 08:38:41;;;;;;;;;;;-12.30;99.90;;;;;;5056270;28;20007;-60
2022/12/13 08:41:07;;;;;;;;;;;-12.20;99.90;;;;;;5056561;28;19959;-61
2022/12/13 08:43:33;;;;;;;;;;;-12.20;99.90;;;;;;5056298;28;19962;-60
2022/12/13 08:45:58;;;;;;;;;;;-12.10;99.90;;;;;;5055857;28;20374;-60
2022/12/13 08:48:24;;;;;;;;;;;-12.10;99.90;;;;;;5056152;28;20337;-61
2022/12/13 08:50:49;;;;;;;;;;;-12.00;99.90;;;;;;5055724;28;19955;-61
2022/12/13 08:53:15;;;;;;;;;;;-12.00;99.90;;;;;;5055728;28;19924;-61
2022/12/13 08:55:40;;;;;;;;;;;-11.90;99.90;;;;;;5054732;28;19912;-61
2022/12/13 08:58:07;;;;;;;;;;;-11.90;99.90;;;;;;5055552;28;19913;-60
2022/12/13 09:00:33;;;;;;;;;;;-11.70;99.90;;;;;;5055920;28;19928;-60
2022/12/13 09:02:58;;;;;;;;;;;-11.70;99.90;;;;;;5055577;28;20365;-60
2022/12/13 09:05:24;;;;;;;;;;;-11.60;99.90;;;;;;5055724;28;20394;-59
2022/12/13 09:07:53;;;;;;;;;;;-11.60;99.90;;;;;;5055470;28;20447;-61
2022/12/13 09:10:19;;;;;;;;;;;-11.50;99.90;;;;;;5055755;28;19945;-60
2022/12/13 09:12:45;;;;;;;;;;;-11.50;99.90;;;;;;5056121;28;19913;-60
2022/12/13 09:15:10;;;;;;;;;;;-11.50;99.90;;;;;;5055335;28;19908;-60
2022/12/13 09:17:36;;;;;;;;;;;-11.40;99.90;;;;;;5054150;28;19912;-61
2022/12/13 09:20:01;;;;;;;;;;;-11.40;99.90;;;;;;5054004;28;19913;-61
2022/12/13 09:22:27;;;;;;;;;;;-11.30;99.90;;;;;;5055818;28;19959;-61
2022/12/13 09:24:53;;;;;;;;;;;-11.20;99.90;;;;;;5054168;28;19913;-60
2022/12/13 09:27:20;;;;;;;;;;;-11.20;99.90;;;;;;5055178;28;19948;-59
2022/12/13 09:29:46;;;;;;;;;;;-11.20;99.90;;;;;;5055185;28;20385;-61
2022/12/13 09:32:11;;;;;;;;;;;-11.10;99.90;;;;;;5055057;28;19920;-61
2022/12/13 09:34:37;;;;;;;;;;;-11.00;99.90;;;;;;5054059;28;19917;-61
2022/12/13 09:37:02;;;;;;;;;;;-10.80;99.90;;;;;;5054930;28;19913;-61
2022/12/13 09:39:28;;;;;;;;;;;-10.70;99.90;;;;;;5055079;28;20353;-61
2022/12/13 09:41:55;;;;;;;;;;;-10.60;99.90;;;;;;5054829;28;19974;-61
2022/12/13 09:44:27;;;;;;;;;;;-10.50;99.90;;;;;;5053452;28;20368;-61
2022/12/13 09:46:53;;;;;;;;;;;-10.40;99.90;;;;;;5054753;28;19924;-61
2022/12/13 09:49:20;;;;;;;;;;;-10.30;99.90;;;;;;5055038;28;20327;-61
2022/12/13 09:51:51;;;;;;;;;;;-10.20;99.90;;;;;;5054552;28;19920;-61
2022/12/13 09:54:17;;;;;;;;;;;-10.10;99.90;;;;;;5054844;28;19909;-61
2022/12/13 09:56:49;;;;;;;;;;;-9.90;99.90;;;;;;5054539;28;19909;-61
2022/12/13 09:59:16;;;;;;;;;;;-9.80;99.90;;;;;;5054785;28;19917;-61
2022/12/13 10:01:41;;;;;;;;;;;-9.80;99.90;;;;;;5036615;28;20426;-61
2022/12/13 10:04:08;;;;;;;;;;;-9.70;99.90;;;;;;5053258;28;19920;-60
2022/12/13 10:06:35;;;;;;;;;;;-9.60;99.90;;;;;;5054609;28;20277;-61
2022/12/13 10:09:01;;;;;;;;;;;-9.50;99.90;;;;;;5053226;28;19909;-61
2022/12/13 10:11:27;;;;;;;;;;;-9.30;99.90;;;;;;5054566;28;19913;-61
2022/12/13 10:13:52;;;;;;;;;;;-9.20;99.90;;;;;;5053028;28;19936;-61
2022/12/13 10:16:24;;;;;;;;;;;-9.10;99.90;;;;;;5054216;28;20352;-60
2022/12/13 10:18:49;;;;;;;;;;;-9.00;99.90;;;;;;5054408;28;19999;-61
2022/12/13 10:21:21;;;;;;;;;;;-8.90;99.90;;;;;;5054101;28;20001;-61
2022/12/13 10:23:47;;;;;;;;;;;-8.80;99.90;;;;;;5054003;28;19924;-61
2022/12/13 10:26:13;;;;;;;;;;;-8.70;99.90;;;;;;5054353;28;19913;-61
2022/12/13 10:28:39;;;;;;;;;;;-8.60;99.90;;;;;;5054003;28;19962;-61
2022/12/13 10:31:05;;;;;;;;;;;-8.50;99.90;;;;;;5054279;28;19952;-61
2022/12/13 10:33:31;;;;;;;;;;;-8.30;99.90;;;;;;5053995;28;19919;-61
2022/12/13 10:36:28;;;;;;;;;;;-8.20;99.90;;;;;;5053826;28;19992;-61
2022/12/13 10:38:54;;;;;;;;;;;-8.10;99.90;;;;;;5054126;28;20365;-61
2022/12/13 10:41:26;;;;;;;;;;;-7.90;99.90;;;;;;5052589;28;20003;-61
2022/12/13 10:44:06;;;;;;;;;;;-7.90;99.90;;;;;;5053786;28;19909;-61
2022/12/13 10:46:32;;;;;;;;;;;-7.80;99.90;;;;;;5053778;28;19909;-61
2022/12/13 10:48:58;;;;;;;;;;;-7.60;99.90;;;;;;5054057;28;20280;-62
2022/12/13 10:51:23;;;;;;;;;;;-7.50;99.90;;;;;;5053669;28;19966;-61
2022/12/13 10:53:49;;;;;;;;;;;-7.40;99.90;;;;;;5052384;28;19966;-61
2022/12/13 10:56:16;;;;;;;;;;;-7.40;99.90;;;;;;5052422;28;19995;-61
2022/12/13 10:58:43;;;;;;;;;;;-7.40;99.90;;;;;;5053872;28;19913;-62
2022/12/13 11:01:17;;;;;;;;;;;-7.30;99.90;;;;;;5054240;28;19908;-62
2022/12/13 11:03:55;;;;;;;;;;;-7.30;99.90;;;;;;5052287;28;20011;-61
2022/12/13 11:06:20;;;;;;;;;;;-7.20;99.90;;;;;;5052398;28;19963;-61
2022/12/13 11:08:46;;;;;;;;;;;-7.10;99.90;;;;;;5053881;28;19952;-61
2022/12/13 11:11:12;;;;;;;;;;;-7.00;99.90;;;;;;5052669;28;19920;-61
2022/12/13 11:13:46;;;;;;;;;;;-6.90;99.90;;;;;;5053786;28;20364;-61
2022/12/13 11:16:34;;;;;;;;;;;-6.80;99.90;;;;;;5053548;28;19909;-61
2022/12/13 11:19:03;;;;;;;;;;;-6.70;99.90;;;;;;5054437;28;19913;-62
2022/12/13 11:21:31;;;;;;;;;;;-6.50;99.90;;;;;;5057777;28;20007;-61
2022/12/13 11:24:04;;;;;;;;;;;-6.40;99.90;;;;;;5057390;28;19908;-62
2022/12/13 11:26:32;;;;;;;;;;;-6.30;99.90;;;;;;5057402;28;19909;-61
2022/12/13 11:29:16;;;;;;;;;;;-6.20;99.90;;;;;;5057387;28;20007;-62
2022/12/13 11:31:42;;;;;;;;;;;-6.20;99.90;;;;;;5057314;28;19909;-61
2022/12/13 11:34:08;;;;;;;;;;;-6.20;99.90;;;;;;5057243;28;19961;-62
2022/12/13 11:36:36;;;;;;;;;;;-6.20;99.90;;;;;;5057206;28;19909;-61
2022/12/13 11:39:09;;;;;;;;;;;-6.10;99.90;;;;;;5057135;28;19912;-61
2022/12/13 11:41:37;;;;;;;;;;;-6.10;99.90;;;;;;5055956;28;19909;-62
2022/12/13 11:44:21;;;;;;;;;;;-6.00;99.90;;;;;;5057294;28;19912;-62
2022/12/13 11:46:50;;;;;;;;;;;-6.00;99.90;;;;;;5056977;28;19955;-62
2022/12/13 11:49:17;;;;;;;;;;;-5.90;99.90;;;;;;5055725;28;19908;-62
2022/12/13 11:51:47;;;;;;;;;;;-5.90;99.90;;;;;;5056835;28;19917;-61
2022/12/13 11:54:25;;;;;;;;;;;-5.80;99.90;;;;;;5056864;28;20036;-62
2022/12/13 11:56:53;;;;;;;;;;;-5.80;99.90;;;;;;5055526;28;20368;-62
2022/12/13 11:59:19;;;;;;;;;;;-5.80;99.90;;;;;;5056738;28;19913;-62
2022/12/13 12:01:50;;;;;;;;;;;-5.70;99.90;;;;;;5056756;28;20327;-61
2022/12/13 12:04:24;;;;;;;;;;;-5.70;99.90;;;;;;5056657;28;19909;-62
2022/12/13 12:06:53;;;;;;;;;;;-5.60;99.90;;;;;;5056981;28;19909;-62
2022/12/13 12:09:21;;;;;;;;;;;-5.60;99.90;;;;;;5056892;28;19909;-62
2022/12/13 12:11:52;;;;;;;;;;;-5.50;99.90;;;;;;5056589;28;19942;-62
2022/12/13 12:14:23;;;;;;;;;;;-5.50;99.90;;;;;;5056620;28;19962;-62
2022/12/13 12:16:56;;;;;;;;;;;-5.40;99.90;;;;;;5056473;28;20003;-62
2022/12/13 12:19:23;;;;;;;;;;;-5.40;99.90;;;;;;5056668;28;19912;-62
2022/12/13 12:21:58;;;;;;;;;;;-5.30;99.90;;;;;;5056415;28;19996;-62
2022/12/13 12:24:48;;;;;;;;;;;-5.30;99.90;;;;;;5056246;28;20384;-62
2022/12/13 12:27:27;;;;;;;;;;;-5.20;99.90;;;;;;5056593;28;19912;-62
2022/12/13 12:30:02;;;;;;;;;;;-5.10;99.90;;;;;;5055659;28;19909;-62
2022/12/13 12:32:27;;;;;;;;;;;-5.10;99.90;;;;;;5056282;28;19913;-61
2022/12/13 12:35:03;;;;;;;;;;;-5.10;99.90;;;;;;5054849;28;20288;-62
2022/12/13 12:37:29;;;;;;;;;;;-5.00;99.90;;;;;;5056411;28;19909;-61
2022/12/13 12:39:57;;;;;;;;;;;-4.90;99.90;;;;;;5055952;28;19913;-61
2022/12/13 12:42:32;;;;;;;;;;;-4.80;99.90;;;;;;5056015;28;19909;-62
2022/12/13 12:45:13;;;;;;;;;;;-4.80;99.90;;;;;;5055871;28;19932;-61
2022/12/13 12:47:58;;;;;;;;;;;-4.80;99.90;;;;;;5056232;28;19995;-62
2022/12/13 12:50:24;;;;;;;;;;;-4.70;99.90;;;;;;5054532;28;19962;-63
2022/12/13 12:52:58;;;;;;;;;;;-4.50;99.90;;;;;;5055717;28;19917;-62
2022/12/13 12:55:27;;;;;;;;;;;-4.40;99.90;;;;;;5051971;28;19912;-61
2022/12/13 12:58:07;;;;;;;;;;;-4.30;99.90;;;;;;5054039;28;19913;-62
2022/12/13 13:00:51;;;;;;;;;;;-4.30;99.90;;;;;;5055761;28;19924;-63
2022/12/13 13:03:20;;;;;;;;;;;-4.30;99.90;;;;;;5055478;28;20455;-63
2022/12/13 13:05:55;;;;;;;;;;;-4.20;99.90;;;;;;5055830;28;19912;-63
2022/12/13 13:08:24;;;;;;;;;;;-4.10;99.90;;;;;;5037468;28;19944;-63
2022/12/13 13:10:50;;;;;;;;;;;-4.00;99.90;;;;;;5035154;28;20384;-63
2022/12/13 13:13:36;;;;;;;;;;;-4.00;99.90;;;;;;5035540;28;20423;-63
2022/12/13 13:16:02;;;;;;;;;;;-4.00;99.90;;;;;;5035455;28;19916;-62
2022/12/13 13:18:47;;;;;;;;;;;-4.00;99.90;;;;;;5034073;28;19992;-62
2022/12/13 13:21:33;;;;;;;;;;;-4.00;99.90;;;;;;5035800;28;19909;-63
2022/12/13 13:24:07;;;;;;;;;;;-4.00;99.90;;;;;;5034927;28;19970;-62
2022/12/13 13:26:35;;;;;;;;;;;-4.00;99.90;;;;;;5035218;28;19915;-62
2022/12/13 13:29:20;;;;;;;;;;;-4.00;99.90;;;;;;5035760;28;19909;-63
2022/12/13 13:31:58;;;;;;;;;;;-4.00;99.90;;;;;;5035156;28;20387;-62
2022/12/13 13:34:29;;;;;;;;;;;-4.10;99.90;;;;;;5035692;28;19909;-62
2022/12/13 13:36:55;;;;;;;;;;;-4.00;99.90;;;;;;5035032;28;20382;-62
2022/12/13 13:39:27;;;;;;;;;;;-4.10;99.90;;;;;;5034925;28;19913;-63
2022/12/13 13:41:55;;;;;;;;;;;-4.20;99.90;;;;;;5034614;28;19917;-63
2022/12/13 13:44:39;;;;;;;;;;;-4.20;99.90;;;;;;5034895;28;20308;-63
2022/12/13 13:47:14;;;;;;;;;;;-4.30;99.90;;;;;;5034852;28;19963;-62
2022/12/13 13:49:45;;;;;;;;;;;-4.30;99.90;;;;;;5034751;28;19909;-63
2022/12/13 13:52:18;;;;;;;;;;;-4.30;99.90;;;;;;5034626;28;19924;-63
2022/12/13 13:54:53;;;;;;;;;;;-4.30;99.90;;;;;;5034910;28;19913;-63
2022/12/13 13:57:37;;;;;;;;;;;-4.30;99.90;;;;;;5034565;28;19996;-63
2022/12/13 14:00:13;;;;;;;;;;;-4.30;99.90;;;;;;5034886;28;19966;-63
2022/12/13 14:02:54;;;;;;;;;;;-4.30;99.90;;;;;;5034708;28;20000;-62
2022/12/13 14:05:39;;;;;;;;;;;-4.40;99.90;;;;;;5034773;28;20297;-62
2022/12/13 14:08:23;;;;;;;;;;;-4.50;99.90;;;;;;5034668;28;19915;-62
2022/12/13 14:11:00;;;;;;;;;;;-4.50;99.90;;;;;;5034967;28;20063;-63
2022/12/13 14:13:41;;;;;;;;;;;-4.60;99.90;;;;;;5034383;28;19909;-62
2022/12/13 14:16:21;;;;;;;;;;;-4.70;99.90;;;;;;5034327;28;20358;-62
2022/12/13 14:18:52;;;;;;;;;;;-4.70;99.90;;;;;;5034743;28;19913;-62